Time;durP1;ratioP1;P1;durP2;ratioP2;P2;SDS_P1;SDS_P2;PMS_P1;PMS_P2;Temp;Humidity;BMP_temperature;BMP_pressure;BME280_temperature;BME280_humidity;BME280_pressure;Samples;Min_cycle;Max_cycle;Signal;HPM_P1;HPM_P2
2022/01/24 00:02:04;;;;;;;40.72;16.65;;;;;;;2.40;82.85;102053.91;4990284;28;20158;-74
2022/01/24 00:04:30;;;;;;;35.65;16.30;;;;;;;2.37;83.07;102054.66;4990533;28;20054;-73
2022/01/24 00:06:56;;;;;;;38.78;17.08;;;;;;;2.27;82.76;102046.91;4990323;28;20027;-76
2022/01/24 00:09:22;;;;;;;37.15;17.10;;;;;;;2.26;82.89;102048.06;4990739;28;20027;-75
2022/01/24 00:27:52;;;;;;;27.00;13.48;;;;;;;2.28;82.79;102029.63;4988092;28;20034;-74
2022/01/24 00:30:18;;;;;;;30.33;14.63;;;;;;;2.33;82.51;102037.72;4957941;28;20506;-74
2022/01/24 00:32:45;;;;;;;28.52;13.27;;;;;;;2.33;82.08;102032.09;4989942;28;20543;-75
2022/01/24 00:35:12;;;;;;;30.30;13.10;;;;;;;2.43;81.87;102030.63;4973988;28;20023;-75
2022/01/24 00:37:38;;;;;;;25.25;13.13;;;;;;;2.44;81.76;102037.88;4957975;28;20042;-75
2022/01/24 00:40:06;;;;;;;28.90;14.00;;;;;;;2.42;81.67;102032.63;4957692;28;20023;-75
2022/01/24 00:45:31;;;;;;;26.30;13.15;;;;;;;2.48;81.36;102021.88;4973859;28;20038;-76
2022/01/24 00:56:03;;;;;;;25.50;13.55;;;;;;;2.36;81.99;102030.56;4974257;28;20045;-74
2022/01/24 00:58:28;;;;;;;29.80;14.38;;;;;;;2.33;81.91;102032.09;4973560;28;20065;-74
2022/01/24 01:00:55;;;;;;;35.33;14.07;;;;;;;2.35;82.21;102040.16;4975422;28;20058;-74
2022/01/24 01:03:24;;;;;;;27.02;14.18;;;;;;;2.34;82.02;102038.53;4973723;28;20027;-76
2022/01/24 01:06:11;;;;;;;33.35;14.70;;;;;;;2.37;82.21;102041.41;4973525;28;20034;-75
2022/01/24 01:19:41;;;;;;;29.92;14.50;;;;;;;2.48;81.52;102025.50;4987904;28;20066;-74
2022/01/24 01:22:07;;;;;;;30.65;14.05;;;;;;;2.49;81.96;102018.69;4973376;28;20027;-74
2022/01/24 01:24:48;;;;;;;30.23;15.25;;;;;;;2.51;81.65;102024.75;4976488;28;20034;-75
2022/01/24 01:27:19;;;;;;;28.80;14.77;;;;;;;2.50;81.61;102028.75;4978860;28;20431;-76
2022/01/24 01:29:57;;;;;;;29.02;15.10;;;;;;;2.53;81.39;102027.97;4977254;28;20046;-75
2022/01/24 01:54:12;;;;;;;27.58;13.73;;;;;;;2.58;80.95;102033.25;4990747;28;20495;-75
2022/01/24 01:56:36;;;;;;;26.25;12.32;;;;;;;2.58;80.75;102035.25;4976822;28;20114;-75
2022/01/24 01:59:03;;;;;;;25.58;12.85;;;;;;;2.64;80.42;102035.72;4978208;28;20066;-75
2022/01/24 02:01:28;;;;;;;24.08;13.40;;;;;;;2.51;80.89;102015.50;4976751;28;20042;-75
2022/01/24 02:03:57;;;;;;;29.00;12.93;;;;;;;2.68;80.89;102039.41;4977667;28;20019;-75
2022/01/24 02:06:42;;;;;;;27.52;13.90;;;;;;;2.69;80.61;102035.41;4975770;28;20030;-76
2022/01/24 02:09:10;;;;;;;30.38;14.20;;;;;;;2.66;80.40;102039.81;4975438;28;20026;-76
2022/01/24 02:11:48;;;;;;;29.15;15.15;;;;;;;2.67;80.23;102029.34;4976628;28;20038;-76
2022/01/24 02:14:19;;;;;;;30.50;16.23;;;;;;;2.73;80.37;102027.81;4990579;28;20082;-75
2022/01/24 02:17:13;;;;;;;29.40;15.35;;;;;;;2.73;80.33;102031.44;4975718;28;20042;-75
2022/01/24 02:22:47;;;;;;;28.52;13.32;;;;;;;2.78;80.01;102027.47;4992666;28;20085;-75
2022/01/24 02:25:26;;;;;;;25.45;12.18;;;;;;;2.80;79.91;102025.09;4977632;28;20031;-74
2022/01/24 02:27:57;;;;;;;32.63;15.23;;;;;;;2.76;79.77;102024.25;4991840;28;20030;-74
2022/01/24 02:33:11;;;;;;;26.80;13.77;;;;;;;2.71;79.96;102022.59;4976256;28;20050;-74
2022/01/24 02:35:39;;;;;;;24.92;12.15;;;;;;;2.70;79.70;102018.16;4992483;28;20531;-74
2022/01/24 02:38:17;;;;;;;21.85;11.30;;;;;;;2.73;80.06;102022.19;4977611;28;20081;-74
2022/01/24 02:45:59;;;;;;;19.80;10.70;;;;;;;2.71;80.05;102016.16;4991220;28;20039;-74
2022/01/24 02:49:01;;;;;;;23.75;12.05;;;;;;;2.78;79.18;102031.09;4977291;28;20045;-74
2022/01/24 02:52:00;;;;;;;21.02;10.80;;;;;;;2.78;79.38;102030.28;4977363;28;20026;-74
2022/01/24 02:54:21;;;;;;;24.70;11.40;;;;;;;2.79;79.27;102024.28;4976631;28;20027;-74
2022/01/24 02:56:47;;;;;;;23.05;11.55;;;;;;;2.79;79.05;102031.91;4991952;28;20035;-75
2022/01/24 02:59:13;;;;;;;31.23;12.50;;;;;;;2.78;79.04;102031.09;4975972;28;20033;-75
2022/01/24 03:01:43;;;;;;;21.70;11.20;;;;;;;2.78;79.04;102031.09;4976179;28;20035;-73
2022/01/24 03:04:10;;;;;;;23.50;11.43;;;;;;;2.77;78.67;102025.84;4975729;28;20027;-74
2022/01/24 03:06:36;;;;;;;21.35;10.85;;;;;;;2.81;78.72;102035.16;4991791;28;20190;-75
2022/01/24 03:09:04;;;;;;;23.45;12.13;;;;;;;2.82;78.86;102029.13;4959430;28;20033;-75
2022/01/24 03:11:53;;;;;;;20.75;10.10;;;;;;;2.82;78.59;102025.50;4975631;28;20031;-75
2022/01/24 03:14:36;;;;;;;20.85;11.05;;;;;;;2.83;78.68;102029.94;4988941;28;20027;-75
2022/01/24 03:17:04;;;;;;;19.05;10.10;;;;;;;2.84;78.40;102037.19;4975639;28;20174;-76
2022/01/24 03:19:31;;;;;;;20.70;9.70;;;;;;;2.65;78.63;102024.13;4959177;28;20395;-75
2022/01/24 03:21:57;;;;;;;22.90;10.07;;;;;;;2.64;78.61;102036.56;4991643;28;20042;-74
2022/01/24 03:24:23;;;;;;;27.40;12.35;;;;;;;2.60;78.69;102036.50;4959141;28;20022;-74
2022/01/24 03:26:49;;;;;;;26.67;13.98;;;;;;;2.59;78.75;102036.88;4975122;28;20022;-74
2022/01/24 03:29:16;;;;;;;35.55;14.35;;;;;;;2.48;79.22;102042.38;4975261;28;20027;-74
2022/01/24 03:31:43;;;;;;;32.10;15.02;;;;;;;2.44;79.07;102049.13;4975054;28;20038;-75
2022/01/24 03:34:09;;;;;;;32.88;16.38;;;;;;;2.37;79.29;102044.22;4990685;28;20050;-75
2022/01/24 03:36:36;;;;;;;38.38;17.35;;;;;;;2.33;79.46;102051.78;4991509;28;20031;-75
2022/01/24 03:39:03;;;;;;;38.65;18.67;;;;;;;2.33;80.17;102053.78;4976483;28;20062;-75
2022/01/24 03:41:28;;;;;;;35.88;17.45;;;;;;;2.32;79.95;102050.16;4974842;28;20490;-75
2022/01/24 03:44:01;;;;;;;40.60;18.02;;;;;;;2.30;79.75;102051.75;4974894;28;20022;-75
2022/01/24 03:46:35;;;;;;;40.00;18.05;;;;;;;2.28;79.92;102056.94;4989542;28;20023;-73
2022/01/24 03:49:20;;;;;;;41.45;18.63;;;;;;;2.19;80.53;102054.41;4976239;28;20380;-75
2022/01/24 03:51:46;;;;;;;36.10;18.15;;;;;;;2.22;80.13;102053.63;4975975;28;20031;-74
2022/01/24 03:54:12;;;;;;;36.55;19.38;;;;;;;2.18;80.38;102041.53;4975963;28;20369;-75
2022/01/24 03:56:38;;;;;;;40.42;18.73;;;;;;;2.29;80.57;102052.94;4974485;28;20527;-75
2022/01/24 03:59:04;;;;;;;38.90;19.92;;;;;;;2.29;80.48;102053.75;4990874;28;20031;-74
2022/01/24 04:01:31;;;;;;;38.55;18.48;;;;;;;2.32;80.47;102043.75;4990843;28;20534;-75
2022/01/24 04:03:59;;;;;;;37.70;18.58;;;;;;;2.37;80.20;102051.88;4975852;28;20065;-75
2022/01/24 04:06:25;;;;;;;45.30;20.02;;;;;;;2.38;79.31;102061.88;4990433;28;20049;-75
2022/01/24 04:08:53;;;;;;;39.92;18.85;;;;;;;2.25;79.86;102052.06;4976104;28;20588;-75
2022/01/24 04:11:22;;;;;;;40.70;19.60;;;;;;;2.24;79.86;102051.25;4990648;28;20102;-74
2022/01/24 04:13:57;;;;;;;40.97;20.42;;;;;;;2.23;80.43;102054.44;4974205;28;20031;-75
2022/01/24 04:16:29;;;;;;;43.83;20.38;;;;;;;2.18;79.95;102045.16;4989602;28;20027;-74
2022/01/24 04:21:56;;;;;;;45.13;20.95;;;;;;;2.09;80.01;102044.63;4964319;28;20514;-75
2022/01/24 04:24:25;;;;;;;51.10;22.50;;;;;;;2.02;80.17;102047.31;4975540;28;20041;-75
2022/01/24 04:26:50;;;;;;;41.55;20.73;;;;;;;2.08;80.17;102057.03;4975473;28;20023;-74
2022/01/24 04:29:30;;;;;;;47.85;21.83;;;;;;;2.02;80.28;102057.75;4990466;28;20034;-74
2022/01/24 04:31:57;;;;;;;48.08;20.83;;;;;;;2.04;79.66;102064.59;4973924;28;20491;-74
2022/01/24 04:34:23;;;;;;;45.22;20.50;;;;;;;2.03;79.51;102064.97;4973859;28;20190;-74
2022/01/24 04:36:49;;;;;;;43.47;20.20;;;;;;;2.08;79.38;102064.66;4990217;28;20106;-74
2022/01/24 04:39:20;;;;;;;45.42;19.58;;;;;;;2.01;79.38;102062.56;4975436;28;20118;-75
2022/01/24 04:41:50;;;;;;;43.72;21.33;;;;;;;2.06;79.30;102064.25;4957819;28;20035;-75
2022/01/24 04:57:02;;;;;;;35.70;17.52;;;;;;;2.15;78.75;102078.81;4989517;28;20038;-74
2022/01/24 04:59:29;;;;;;;35.33;17.67;;;;;;;2.14;78.24;102071.56;4957053;28;20391;-76
2022/01/24 05:01:54;;;;;;;36.67;17.33;;;;;;;2.09;78.27;102069.09;4957587;28;20030;-75
2022/01/24 05:04:21;;;;;;;36.75;16.42;;;;;;;2.14;78.50;102074.38;4975108;28;20023;-74
2022/01/24 05:06:47;;;;;;;31.80;15.88;;;;;;;2.16;78.48;102077.66;4973495;28;20054;-74
2022/01/24 05:09:17;;;;;;;37.70;15.93;;;;;;;2.23;78.38;102085.34;4973550;28;20113;-75
2022/01/24 05:11:58;;;;;;;30.77;15.27;;;;;;;2.16;78.29;102078.47;4973385;28;20072;-75
2022/01/24 05:25:21;;;;;;;44.45;17.63;;;;;;;1.95;78.84;102078.13;4987398;28;20089;-74
2022/01/24 05:27:48;;;;;;;41.30;19.25;;;;;;;1.91;78.86;102077.25;4989596;28;20031;-74
2022/01/24 05:30:16;;;;;;;38.03;18.20;;;;;;;1.96;79.12;102078.94;4974602;28;20027;-74
2022/01/24 05:32:41;;;;;;;41.65;18.73;;;;;;;1.88;79.00;102077.16;4988741;28;20054;-74
2022/01/24 05:35:07;;;;;;;39.90;18.85;;;;;;;1.85;79.65;102083.56;4973308;28;20118;-74
2022/01/24 05:37:32;;;;;;;36.67;17.08;;;;;;;1.82;79.68;102087.94;4974582;28;20490;-76
2022/01/24 05:39:58;;;;;;;30.17;16.02;;;;;;;1.81;79.14;102089.13;4957182;28;20029;-75
2022/01/24 05:42:24;;;;;;;40.35;18.70;;;;;;;1.75;79.52;102082.19;4973038;28;20451;-74
2022/01/24 05:44:50;;;;;;;34.88;17.25;;;;;;;1.79;79.37;102083.06;4973071;28;20035;-74
2022/01/24 05:47:17;;;;;;;35.38;17.63;;;;;;;1.86;79.61;102094.41;4974589;28;20203;-74
2022/01/24 05:49:42;;;;;;;35.05;17.20;;;;;;;1.92;79.62;102092.13;4972918;28;20037;-74
2022/01/24 05:52:11;;;;;;;34.47;17.05;;;;;;;1.90;79.76;102097.28;4989216;28;20022;-75
2022/01/24 05:54:37;;;;;;;32.97;17.25;;;;;;;1.89;79.25;102104.91;4956744;28;20113;-75
2022/01/24 05:57:05;;;;;;;48.55;20.23;;;;;;;1.88;79.96;102102.44;4972832;28;20105;-76
2022/01/24 05:59:32;;;;;;;40.47;18.20;;;;;;;1.88;79.79;102099.66;4956946;28;20455;-75
2022/01/24 06:01:58;;;;;;;36.55;18.90;;;;;;;1.85;80.24;102104.03;4973049;28;20093;-77
2022/01/24 06:04:24;;;;;;;40.55;17.38;;;;;;;1.88;80.02;102106.06;4989431;28;20026;-77
2022/01/24 06:06:51;;;;;;;33.75;17.45;;;;;;;1.87;80.15;102096.06;4973080;28;20041;-77
2022/01/24 06:09:16;;;;;;;33.65;17.15;;;;;;;1.82;79.81;102089.94;4990261;28;20030;-78
2022/01/24 06:11:43;;;;;;;33.38;16.80;;;;;;;1.96;79.63;102101.41;4979198;28;20046;-77
2022/01/24 06:14:10;;;;;;;38.15;17.00;;;;;;;2.01;79.74;102104.72;4976264;28;20558;-76
2022/01/24 06:16:36;;;;;;;35.40;16.88;;;;;;;2.04;79.60;102100.31;4975678;28;20050;-74
2022/01/24 06:19:03;;;;;;;35.10;18.02;;;;;;;2.05;79.54;102104.75;4992476;28;20031;-74
2022/01/24 06:21:29;;;;;;;32.92;16.20;;;;;;;2.01;78.91;102098.28;4978183;28;20045;-76
2022/01/24 06:23:56;;;;;;;32.53;17.38;;;;;;;2.09;79.72;102114.06;4978105;28;20034;-76
2022/01/24 06:26:22;;;;;;;37.55;16.55;;;;;;;2.14;79.39;102103.31;4992425;28;20110;-78
2022/01/24 06:28:50;;;;;;;36.58;18.10;;;;;;;2.13;79.17;102092.44;4977448;28;20471;-74
2022/01/24 06:31:15;;;;;;;32.47;17.60;;;;;;;2.13;79.53;102092.44;4976892;28;20030;-73
2022/01/24 06:33:44;;;;;;;34.55;16.92;;;;;;;2.15;79.55;102099.31;4991901;28;20055;-80
2022/01/24 06:36:10;;;;;;;38.40;17.13;;;;;;;2.12;79.01;102085.22;4977112;28;20026;-77
2022/01/24 06:38:38;;;;;;;34.05;16.60;;;;;;;2.14;79.11;102103.31;4974996;28;20431;-76
2022/01/24 06:41:03;;;;;;;32.95;15.95;;;;;;;2.13;79.38;102101.69;4977988;28;20380;-76
2022/01/24 06:43:29;;;;;;;28.58;15.40;;;;;;;2.09;79.40;102095.19;4976836;28;20030;-77
2022/01/24 06:46:00;;;;;;;31.63;15.20;;;;;;;2.11;79.68;102103.25;4976554;28;20048;-77
2022/01/24 06:48:28;;;;;;;36.50;15.57;;;;;;;2.16;78.84;102114.19;4975445;28;20419;-77
2022/01/24 06:50:53;;;;;;;32.03;17.38;;;;;;;2.22;79.20;102121.09;4959097;28;20022;-77
2022/01/24 06:53:20;;;;;;;35.63;15.88;;;;;;;2.25;78.95;102116.72;4975376;28;20315;-76
2022/01/24 06:55:53;;;;;;;32.47;15.25;;;;;;;2.24;78.92;102113.09;4991814;28;20038;-77
2022/01/24 06:58:20;;;;;;;32.55;14.50;;;;;;;2.35;78.97;102124.50;4975036;28;20038;-78
2022/01/24 07:00:45;;;;;;;33.65;15.88;;;;;;;2.34;78.40;102123.69;4974926;28;20026;-77
2022/01/24 07:03:12;;;;;;;28.52;15.23;;;;;;;2.31;78.85;102112.41;4959285;28;20379;-77
2022/01/24 07:05:38;;;;;;;33.10;16.15;;;;;;;2.40;78.61;102122.19;4976641;28;20376;-77
2022/01/24 07:08:04;;;;;;;30.30;14.15;;;;;;;2.43;78.75;102120.59;4991714;28;20123;-74
2022/01/24 07:10:29;;;;;;;31.52;14.73;;;;;;;2.42;78.34;102121.78;4991445;28;20027;-77
2022/01/24 07:12:56;;;;;;;25.33;12.98;;;;;;;2.50;78.41;102134.78;4976539;28;20035;-76
2022/01/24 07:15:30;;;;;;;28.20;13.00;;;;;;;2.41;78.18;102118.19;4990857;28;20495;-76
2022/01/24 07:18:57;;;;;;;26.30;13.00;;;;;;;2.48;78.25;102134.34;4959801;28;20391;-77
2022/01/24 07:20:44;;;;;;;25.95;11.85;;;;;;;2.48;78.19;102149.22;4972821;28;20054;-77
2022/01/24 07:23:10;;;;;;;27.67;13.75;;;;;;;2.54;77.82;102146.91;4967701;28;20424;-76
2022/01/24 07:25:35;;;;;;;29.45;14.32;;;;;;;2.50;77.89;102149.66;4971719;28;20537;-75
2022/01/24 07:28:01;;;;;;;28.38;14.27;;;;;;;2.53;77.55;102148.09;4988624;28;20110;-80
2022/01/24 07:30:26;;;;;;;25.55;12.70;;;;;;;2.50;77.34;102138.41;5001685;28;20052;-74
2022/01/24 07:32:52;;;;;;;28.10;12.95;;;;;;;2.54;77.93;102149.72;4980762;28;20042;-75
2022/01/24 07:35:17;;;;;;;30.60;13.65;;;;;;;2.51;77.67;102142.84;4981446;28;20089;-76
2022/01/24 07:37:44;;;;;;;28.00;12.95;;;;;;;2.55;77.68;102145.72;4974537;28;20030;-77
2022/01/24 07:40:11;;;;;;;24.75;12.48;;;;;;;2.55;77.54;102146.53;4975320;28;20038;-78
2022/01/24 07:45:22;;;;;;;27.88;13.50;;;;;;;2.60;77.83;102165.06;4984673;28;20444;-76
2022/01/24 07:47:48;;;;;;;30.58;13.82;;;;;;;2.61;77.33;102159.06;4974101;28;20023;-78
2022/01/24 07:50:19;;;;;;;30.95;14.63;;;;;;;2.68;78.02;102163.16;4990054;28;20450;-78
2022/01/24 07:52:45;;;;;;;26.23;13.15;;;;;;;2.62;76.90;102154.25;4974213;28;20027;-79
2022/01/24 07:55:10;;;;;;;32.40;13.10;;;;;;;2.64;77.06;102165.94;4974293;28;20535;-79
2022/01/24 07:57:36;;;;;;;34.45;13.77;;;;;;;2.67;77.22;102155.91;4957642;28;20066;-79
2022/01/24 08:00:01;;;;;;;30.30;12.95;;;;;;;2.63;76.69;102166.31;4974284;28;20029;-73
2022/01/24 08:02:26;;;;;;;26.67;13.48;;;;;;;2.63;77.23;102166.31;4957809;28;20027;-75
2022/01/24 08:04:52;;;;;;;24.63;13.05;;;;;;;2.63;77.18;102160.69;4975178;28;20401;-75
2022/01/24 08:07:17;;;;;;;24.10;13.57;;;;;;;2.65;76.82;102163.94;4990036;28;20515;-76
2022/01/24 08:09:42;;;;;;;26.70;11.93;;;;;;;2.67;77.04;102151.09;4957653;28;20484;-77
2022/01/24 08:12:08;;;;;;;31.30;13.10;;;;;;;2.69;77.29;102147.91;4990128;28;20122;-76
2022/01/24 08:14:34;;;;;;;23.08;12.27;;;;;;;2.55;77.24;102135.28;5006569;28;20038;-78
2022/01/24 08:17:02;;;;;;;19.90;12.75;;;;;;;2.75;76.70;102150.03;4957863;28;20479;-78
2022/01/24 08:19:29;;;;;;;32.03;13.23;;;;;;;2.67;76.71;102133.41;4989491;28;20019;-77
2022/01/24 08:21:56;;;;;;;21.52;11.07;;;;;;;2.72;76.74;102141.53;4973996;28;20045;-77
2022/01/24 08:24:23;;;;;;;27.95;12.68;;;;;;;2.61;76.61;102110.44;5006239;28;20029;-75
2022/01/24 08:26:49;;;;;;;22.73;11.13;;;;;;;2.88;76.38;102159.84;4989940;28;20026;-73
2022/01/24 08:29:16;;;;;;;24.75;11.20;;;;;;;2.90;76.70;102156.66;4975347;28;20023;-71
2022/01/24 08:31:42;;;;;;;18.25;9.73;;;;;;;2.99;76.34;102172.06;4974938;28;20061;-73
2022/01/24 08:34:07;;;;;;;17.98;10.30;;;;;;;3.05;75.81;102175.38;4974553;28;20079;-73
2022/01/24 08:36:34;;;;;;;21.25;11.57;;;;;;;3.00;76.26;102170.06;4973753;28;20475;-72
2022/01/24 08:39:06;;;;;;;21.55;9.98;;;;;;;3.06;76.01;102165.72;4973057;28;20033;-78
2022/01/24 08:41:42;;;;;;;27.20;10.65;;;;;;;3.17;76.27;102172.28;4957701;28;20057;-78
2022/01/24 08:44:21;;;;;;;25.50;12.23;;;;;;;3.26;75.54;102172.81;4958990;28;20057;-80
2022/01/24 08:46:47;;;;;;;30.30;12.73;;;;;;;3.41;75.63;102177.44;4974503;28;20033;-78
2022/01/24 08:49:13;;;;;;;30.02;13.23;;;;;;;3.52;75.87;102180.38;4974701;28;20097;-81
2022/01/24 08:51:38;;;;;;;21.58;12.23;;;;;;;3.51;75.04;102177.94;5006111;28;20478;-74
2022/01/24 08:54:04;;;;;;;25.45;13.13;;;;;;;3.53;74.98;102169.91;4989431;28;20030;-76
2022/01/24 08:56:30;;;;;;;26.25;12.85;;;;;;;3.42;74.51;102159.34;4973276;28;20023;-78
2022/01/24 08:58:55;;;;;;;27.30;12.05;;;;;;;3.50;74.44;102170.69;4974359;28;20028;-75
2022/01/24 09:01:20;;;;;;;27.70;12.38;;;;;;;3.63;74.86;102174.88;4989368;28;20031;-75
2022/01/24 09:03:46;;;;;;;25.42;14.60;;;;;;;3.75;74.70;102180.25;4974404;28;20057;-75
2022/01/24 09:06:14;;;;;;;29.58;14.45;;;;;;;3.78;74.26;102166.19;4957030;28;20023;-77
2022/01/24 09:08:39;;;;;;;23.73;11.90;;;;;;;3.87;74.54;102151.78;4974279;28;20503;-76
2022/01/24 09:11:05;;;;;;;25.58;12.95;;;;;;;3.95;74.17;102136.53;5005410;28;20026;-76
2022/01/24 09:13:32;;;;;;;26.70;13.43;;;;;;;4.07;73.97;102158.00;4973898;28;20392;-77
2022/01/24 09:15:58;;;;;;;26.70;14.68;;;;;;;4.23;73.40;102164.19;4956882;28;20024;-79
2022/01/24 09:18:23;;;;;;;31.52;14.30;;;;;;;4.39;73.01;102163.94;4971190;28;20027;-77
2022/01/24 09:20:50;;;;;;;25.98;12.25;;;;;;;4.40;72.84;102165.53;4989101;28;20034;-79
2022/01/24 09:23:16;;;;;;;25.52;12.10;;;;;;;4.39;72.44;102149.81;4973201;28;20046;-77
2022/01/24 09:25:42;;;;;;;25.88;12.18;;;;;;;4.39;71.97;102130.84;4974070;28;20023;-78
2022/01/24 09:28:07;;;;;;;21.15;11.30;;;;;;;4.40;72.51;102132.47;4989050;28;20031;-76
2022/01/24 09:30:32;;;;;;;25.33;11.23;;;;;;;4.63;71.78;102152.00;4974178;28;20384;-77
2022/01/24 09:32:58;;;;;;;24.08;12.02;;;;;;;4.63;71.44;102152.00;4989057;28;20039;-75
2022/01/24 09:35:27;;;;;;;24.48;12.25;;;;;;;4.27;70.98;102089.69;4972344;28;20062;-76
2022/01/24 09:37:52;;;;;;;24.88;12.35;;;;;;;4.63;71.31;102147.19;4974631;28;20435;-77
2022/01/24 09:40:17;;;;;;;27.27;13.70;;;;;;;4.55;71.10;102119.28;4989126;28;20030;-77
2022/01/24 09:42:44;;;;;;;27.25;13.75;;;;;;;4.72;70.43;102153.28;4988802;28;20023;-76
2022/01/24 09:45:10;;;;;;;28.50;13.75;;;;;;;4.68;70.63;102146.81;4990543;28;20070;-76
2022/01/24 09:47:36;;;;;;;25.55;14.35;;;;;;;4.81;71.06;102150.09;4977866;28;20101;-77
2022/01/24 09:50:04;;;;;;;29.88;14.65;;;;;;;4.86;71.32;102135.63;4992899;28;20464;-78
2022/01/24 09:52:32;;;;;;;29.58;14.35;;;;;;;5.07;70.33;102141.38;4976759;28;20022;-76
2022/01/24 09:54:57;;;;;;;26.70;12.68;;;;;;;5.29;70.10;102142.25;4977839;28;20115;-75
2022/01/24 09:57:22;;;;;;;25.15;13.10;;;;;;;5.33;69.74;102140.25;4992615;28;20046;-76
2022/01/24 09:59:49;;;;;;;21.73;12.10;;;;;;;5.31;69.18;102119.28;4977458;28;20022;-76
2022/01/24 10:02:14;;;;;;;25.75;13.50;;;;;;;5.42;69.12;102139.91;4977447;28;20058;-76
2022/01/24 10:04:40;;;;;;;33.13;14.65;;;;;;;5.43;69.59;102114.03;4976791;28;20042;-75
2022/01/24 10:07:12;;;;;;;25.75;13.70;;;;;;;5.47;68.72;102123.38;4960292;28;20027;-75
2022/01/24 10:09:40;;;;;;;26.88;14.85;;;;;;;5.54;69.18;102133.88;4960288;28;20027;-77
2022/01/24 10:17:31;;;;;;;31.83;16.58;;;;;;;5.22;69.01;102136.59;4990836;28;20097;-74
2022/01/24 10:19:56;;;;;;;30.60;15.35;;;;;;;5.14;69.70;102127.28;4976956;28;20035;-73
2022/01/24 10:22:25;;;;;;;33.92;17.80;;;;;;;5.12;69.80;102134.53;4975899;28;20053;-76
2022/01/24 10:24:54;;;;;;;29.90;16.45;;;;;;;5.04;69.85;102133.69;4974819;28;20015;-74
2022/01/24 10:27:27;;;;;;;28.40;16.17;;;;;;;5.02;69.20;102135.28;4977091;28;20603;-76
2022/01/24 10:29:59;;;;;;;32.20;16.33;;;;;;;4.91;69.75;102134.41;4979499;28;20031;-77
2022/01/24 10:32:40;;;;;;;35.15;16.17;;;;;;;4.79;70.03;102149.66;4977636;28;20019;-78
2022/01/24 10:35:26;;;;;;;27.98;14.68;;;;;;;4.81;70.64;102146.47;4975491;28;20019;-77
2022/01/24 10:38:41;;;;;;;32.80;15.25;;;;;;;4.86;70.65;102140.44;4975978;28;20471;-71
2022/01/24 10:41:25;;;;;;;27.35;14.88;;;;;;;4.83;70.58;102141.25;4976755;28;20034;-71
2022/01/24 10:43:56;;;;;;;29.90;14.70;;;;;;;4.81;70.83;102129.53;4976827;28;20483;-75
2022/01/24 10:46:23;;;;;;;26.88;15.75;;;;;;;4.96;70.83;102132.03;4975397;28;20081;-73
2022/01/24 10:49:06;;;;;;;36.50;15.27;;;;;;;4.97;70.59;102124.38;4976739;28;20468;-75
2022/01/24 10:51:44;;;;;;;25.55;15.55;;;;;;;5.11;70.41;102130.09;4977351;28;20115;-77
2022/01/24 10:54:09;;;;;;;33.45;17.25;;;;;;;4.97;70.07;102128.00;4976945;28;20023;-75
2022/01/24 10:56:38;;;;;;;32.53;17.60;;;;;;;4.90;70.12;102113.84;4974318;28;20077;-75
2022/01/24 10:59:06;;;;;;;28.77;15.55;;;;;;;4.93;69.98;102117.91;4976532;28;20025;-79
2022/01/24 11:01:32;;;;;;;27.40;15.98;;;;;;;4.84;70.72;102123.06;4977167;28;20029;-79
2022/01/24 11:04:09;;;;;;;30.23;16.23;;;;;;;4.86;69.98;102124.31;4991110;28;20114;-76
2022/01/24 11:06:37;;;;;;;27.40;15.02;;;;;;;4.86;70.04;102127.13;4974668;28;20122;-77
2022/01/24 11:09:33;;;;;;;33.85;16.50;;;;;;;4.82;69.40;102129.13;4959353;28;20387;-77
2022/01/24 11:12:05;;;;;;;26.02;14.88;;;;;;;4.71;69.96;102133.91;4967889;28;20042;-77
2022/01/24 11:14:32;;;;;;;;;;;;;;;4.64;70.73;102131.03;4976874;28;20543;-77
2022/01/24 11:16:59;;;;;;;27.55;15.57;;;;;;;4.56;70.21;102120.91;4975255;28;19914;-79
2022/01/24 11:19:34;;;;;;;30.40;14.57;;;;;;;4.52;70.50;102095.50;4975380;28;20030;-81
2022/01/24 11:22:05;;;;;;;32.88;16.30;;;;;;;4.68;70.25;102107.31;4966042;28;20430;-81
2022/01/24 11:24:39;;;;;;;32.67;17.42;;;;;;;4.83;70.00;102116.66;4957291;28;20051;-77
2022/01/24 11:27:06;;;;;;;26.08;16.13;;;;;;;4.87;69.86;102117.47;4986099;28;20042;-78
2022/01/24 11:29:32;;;;;;;31.73;18.50;;;;;;;4.97;69.99;102108.25;4957289;28;20023;-77
2022/01/24 11:32:24;;;;;;;29.13;16.33;;;;;;;4.89;69.56;102111.41;4988392;28;20034;-77
2022/01/24 11:34:52;;;;;;;36.30;16.67;;;;;;;4.90;69.53;102099.72;4971680;28;20078;-80
2022/01/24 11:37:42;;;;;;;32.50;14.80;;;;;;;5.04;69.86;102107.44;4975266;28;20093;-78
2022/01/24 11:40:12;;;;;;;31.05;15.85;;;;;;;4.94;68.95;102094.09;4976329;28;20037;-79
2022/01/24 11:42:39;;;;;;;34.72;16.27;;;;;;;5.04;69.60;102107.44;4991202;28;20042;-77
2022/01/24 11:45:12;;;;;;;31.30;15.70;;;;;;;5.17;69.66;102109.53;4974710;28;20065;-77
2022/01/24 11:47:40;;;;;;;32.08;17.00;;;;;;;5.20;68.93;102080.50;4974690;28;20034;-78
2022/01/24 11:50:24;;;;;;;30.67;17.42;;;;;;;5.41;67.34;102102.34;4974719;28;20361;-78
2022/01/24 11:52:50;;;;;;;32.97;16.50;;;;;;;5.36;68.59;102099.91;4975899;28;20100;-77
2022/01/24 11:55:30;;;;;;;40.35;17.85;;;;;;;5.42;67.94;102103.16;4958779;28;20122;-79
2022/01/24 11:58:04;;;;;;;41.75;18.58;;;;;;;5.49;67.79;102101.16;4974858;28;20031;-81
2022/01/24 12:00:37;;;;;;;33.92;18.23;;;;;;;5.41;67.11;102093.06;4976056;28;20043;-81
2022/01/24 12:03:23;;;;;;;35.42;19.90;;;;;;;5.34;67.19;102091.03;4989487;28;20029;-79
2022/01/24 12:05:53;;;;;;;33.03;17.00;;;;;;;5.29;67.82;102090.59;4975350;28;20034;-78
2022/01/24 12:08:44;;;;;;;28.42;16.52;;;;;;;5.27;68.22;102093.84;4958141;28;20026;-78
2022/01/24 12:11:24;;;;;;;36.72;18.35;;;;;;;5.30;68.87;102084.56;4975125;28;20026;-75
2022/01/24 12:13:53;;;;;;;36.63;18.58;;;;;;;5.21;67.87;102070.81;4990010;28;20114;-77
2022/01/24 12:16:20;;;;;;;33.60;17.63;;;;;;;5.46;67.96;102075.72;4958289;28;20164;-76
2022/01/24 12:18:49;;;;;;;33.45;17.17;;;;;;;5.53;67.94;102078.53;4965957;28;20499;-78
2022/01/24 12:21:22;;;;;;;36.08;17.83;;;;;;;5.52;68.42;102068.47;4976575;28;20041;-77
2022/01/24 12:23:51;;;;;;;34.83;17.55;;;;;;;5.50;68.70;102054.75;4938665;29;20030;-73
2022/01/24 12:26:16;;;;;;;38.22;18.98;;;;;;;5.55;68.29;102068.47;4970101;28;20081;-86
2022/01/24 12:28:42;;;;;;;35.92;17.58;;;;;;;5.53;67.79;102062.41;4955428;28;20113;-80
2022/01/24 12:31:15;;;;;;;33.50;18.17;;;;;;;5.54;68.36;102049.91;4962035;28;20041;-82
2022/01/24 12:33:44;;;;;;;31.95;17.00;;;;;;;5.68;67.55;102060.41;4975149;28;20102;-76
2022/01/24 12:36:14;;;;;;;30.65;17.02;;;;;;;5.69;67.96;102044.25;4975353;28;20069;-77
2022/01/24 12:38:44;;;;;;;33.28;17.05;;;;;;;5.85;67.90;102055.97;4958323;28;20042;-73
2022/01/24 12:41:27;;;;;;;33.00;19.65;;;;;;;5.99;68.04;102061.66;4974951;28;20034;-76
2022/01/24 12:46:31;;;;;;;30.63;17.77;;;;;;;6.22;66.93;102053.56;4975025;28;20055;-73
2022/01/24 12:48:59;;;;;;;33.33;17.98;;;;;;;6.24;67.33;102047.50;4973412;28;20026;-70
2022/01/24 12:51:28;;;;;;;33.55;17.33;;;;;;;6.29;67.02;102049.91;4974859;28;20065;-70
2022/01/24 12:53:55;;;;;;;33.90;17.15;;;;;;;6.31;66.84;102039.81;4973910;28;20042;-72
2022/01/24 12:56:25;;;;;;;29.85;15.32;;;;;;;6.28;66.33;102045.47;4974630;28;20506;-72
2022/01/24 12:58:51;;;;;;;34.67;16.63;;;;;;;6.20;66.12;102036.19;4973674;28;20037;-71
2022/01/24 13:01:50;;;;;;;36.47;15.70;;;;;;;5.97;65.94;102021.69;4973522;28;20170;-70
2022/01/24 13:04:16;;;;;;;30.25;15.45;;;;;;;6.07;67.55;102032.97;4966307;28;20031;-79
2022/01/24 13:06:43;;;;;;;34.08;15.82;;;;;;;6.12;67.68;102045.09;4958061;28;20033;-77
2022/01/24 13:09:25;;;;;;;31.65;15.57;;;;;;;6.12;66.91;102039.44;4987367;28;20030;-76
2022/01/24 13:11:55;;;;;;;24.42;15.10;;;;;;;6.05;67.63;102029.75;4972948;28;20026;-77
2022/01/24 13:22:33;;;;;;;33.83;17.65;;;;;;;5.53;68.09;102007.91;4973192;28;20411;-75
2022/01/24 13:25:06;;;;;;;39.17;18.58;;;;;;;5.56;68.42;102027.72;4973939;28;20019;-76